sensor_id;sensor_type;location;lat;lon;timestamp;P1;durP1;ratioP1;P2;durP2;ratioP2
18302;SDS011;9277;37.980;23.748;2022-07-29T00:01:43;2.80;;;2.50;;
18302;SDS011;9277;37.980;23.748;2022-07-29T00:04:11;3.70;;;2.25;;
18302;SDS011;9277;37.980;23.748;2022-07-29T00:06:38;2.80;;;2.13;;
18302;SDS011;9277;37.980;23.748;2022-07-29T00:09:05;4.68;;;2.63;;
18302;SDS011;9277;37.980;23.748;2022-07-29T00:11:32;3.67;;;2.50;;
18302;SDS011;9277;37.980;23.748;2022-07-29T00:13:59;2.50;;;2.38;;
18302;SDS011;9277;37.980;23.748;2022-07-29T00:16:28;2.85;;;2.60;;
18302;SDS011;9277;37.980;23.748;2022-07-29T00:18:54;3.22;;;2.38;;
18302;SDS011;9277;37.980;23.748;2022-07-29T00:21:23;4.03;;;2.95;;
18302;SDS011;9277;37.980;23.748;2022-07-29T00:23:50;2.78;;;2.50;;
18302;SDS011;9277;37.980;23.748;2022-07-29T00:26:17;3.53;;;2.60;;
18302;SDS011;9277;37.980;23.748;2022-07-29T00:28:44;2.42;;;2.22;;
18302;SDS011;9277;37.980;23.748;2022-07-29T00:31:10;3.45;;;2.65;;
18302;SDS011;9277;37.980;23.748;2022-07-29T00:33:37;4.22;;;2.47;;
18302;SDS011;9277;37.980;23.748;2022-07-29T00:36:04;2.88;;;2.30;;
18302;SDS011;9277;37.980;23.748;2022-07-29T00:38:31;4.32;;;2.50;;
18302;SDS011;9277;37.980;23.748;2022-07-29T00:40:58;3.20;;;2.90;;
18302;SDS011;9277;37.980;23.748;2022-07-29T00:43:25;3.38;;;2.83;;
18302;SDS011;9277;37.980;23.748;2022-07-29T00:45:52;2.85;;;2.58;;
18302;SDS011;9277;37.980;23.748;2022-07-29T00:48:19;4.28;;;2.83;;
18302;SDS011;9277;37.980;23.748;2022-07-29T00:50:46;3.38;;;2.58;;
18302;SDS011;9277;37.980;23.748;2022-07-29T00:53:12;2.95;;;2.67;;
18302;SDS011;9277;37.980;23.748;2022-07-29T00:55:41;3.00;;;2.47;;
18302;SDS011;9277;37.980;23.748;2022-07-29T00:58:07;8.02;;;2.95;;
18302;SDS011;9277;37.980;23.748;2022-07-29T01:00:35;3.50;;;2.90;;
18302;SDS011;9277;37.980;23.748;2022-07-29T01:03:01;2.90;;;2.42;;
18302;SDS011;9277;37.980;23.748;2022-07-29T01:05:29;4.82;;;2.80;;
18302;SDS011;9277;37.980;23.748;2022-07-29T01:07:56;4.88;;;2.90;;
18302;SDS011;9277;37.980;23.748;2022-07-29T01:10:23;3.13;;;2.50;;
18302;SDS011;9277;37.980;23.748;2022-07-29T01:12:52;3.50;;;2.90;;
18302;SDS011;9277;37.980;23.748;2022-07-29T01:15:20;5.78;;;2.88;;
18302;SDS011;9277;37.980;23.748;2022-07-29T01:17:49;4.35;;;3.00;;
18302;SDS011;9277;37.980;23.748;2022-07-29T01:20:20;3.70;;;3.03;;
18302;SDS011;9277;37.980;23.748;2022-07-29T01:22:58;3.97;;;2.83;;
18302;SDS011;9277;37.980;23.748;2022-07-29T01:25:49;3.53;;;2.85;;
18302;SDS011;9277;37.980;23.748;2022-07-29T01:30:50;4.00;;;3.20;;
18302;SDS011;9277;37.980;23.748;2022-07-29T01:33:17;3.60;;;2.97;;
18302;SDS011;9277;37.980;23.748;2022-07-29T01:36:01;5.32;;;3.30;;
18302;SDS011;9277;37.980;23.748;2022-07-29T01:38:32;2.40;;;2.28;;
18302;SDS011;9277;37.980;23.748;2022-07-29T01:41:01;3.95;;;3.13;;
18302;SDS011;9277;37.980;23.748;2022-07-29T01:43:32;3.00;;;2.80;;
18302;SDS011;9277;37.980;23.748;2022-07-29T01:46:02;4.63;;;3.17;;
18302;SDS011;9277;37.980;23.748;2022-07-29T01:48:31;4.65;;;2.92;;
18302;SDS011;9277;37.980;23.748;2022-07-29T01:51:02;5.03;;;3.00;;
18302;SDS011;9277;37.980;23.748;2022-07-29T01:53:31;9.10;;;3.50;;
18302;SDS011;9277;37.980;23.748;2022-07-29T01:56:00;3.03;;;2.72;;
18302;SDS011;9277;37.980;23.748;2022-07-29T01:58:28;3.78;;;2.80;;
18302;SDS011;9277;37.980;23.748;2022-07-29T02:00:55;6.00;;;3.08;;
18302;SDS011;9277;37.980;23.748;2022-07-29T02:03:24;3.65;;;3.03;;
18302;SDS011;9277;37.980;23.748;2022-07-29T02:05:51;3.90;;;3.15;;
18302;SDS011;9277;37.980;23.748;2022-07-29T02:08:19;4.90;;;3.22;;
18302;SDS011;9277;37.980;23.748;2022-07-29T02:10:47;3.25;;;2.67;;
18302;SDS011;9277;37.980;23.748;2022-07-29T02:13:15;3.15;;;2.85;;
18302;SDS011;9277;37.980;23.748;2022-07-29T02:15:43;4.68;;;2.97;;
18302;SDS011;9277;37.980;23.748;2022-07-29T02:18:12;4.57;;;2.95;;
18302;SDS011;9277;37.980;23.748;2022-07-29T02:20:42;5.35;;;2.85;;
18302;SDS011;9277;37.980;23.748;2022-07-29T02:23:11;9.45;;;2.97;;
18302;SDS011;9277;37.980;23.748;2022-07-29T02:25:39;4.68;;;3.00;;
18302;SDS011;9277;37.980;23.748;2022-07-29T02:28:07;7.47;;;3.25;;
18302;SDS011;9277;37.980;23.748;2022-07-29T02:30:35;4.07;;;3.10;;
18302;SDS011;9277;37.980;23.748;2022-07-29T02:33:03;6.70;;;2.90;;
18302;SDS011;9277;37.980;23.748;2022-07-29T02:35:30;6.70;;;3.15;;
18302;SDS011;9277;37.980;23.748;2022-07-29T02:37:59;3.13;;;2.65;;
18302;SDS011;9277;37.980;23.748;2022-07-29T02:40:42;4.95;;;2.80;;
18302;SDS011;9277;37.980;23.748;2022-07-29T02:43:10;4.22;;;2.85;;
18302;SDS011;9277;37.980;23.748;2022-07-29T02:45:37;6.35;;;3.53;;
18302;SDS011;9277;37.980;23.748;2022-07-29T02:48:05;4.70;;;3.40;;
18302;SDS011;9277;37.980;23.748;2022-07-29T02:50:34;4.13;;;3.05;;
18302;SDS011;9277;37.980;23.748;2022-07-29T02:53:09;5.20;;;2.67;;
18302;SDS011;9277;37.980;23.748;2022-07-29T02:55:40;4.47;;;2.90;;
18302;SDS011;9277;37.980;23.748;2022-07-29T02:58:10;3.10;;;2.40;;
18302;SDS011;9277;37.980;23.748;2022-07-29T03:00:39;3.55;;;2.92;;
18302;SDS011;9277;37.980;23.748;2022-07-29T03:03:07;4.43;;;2.42;;
18302;SDS011;9277;37.980;23.748;2022-07-29T03:05:35;6.90;;;3.30;;
18302;SDS011;9277;37.980;23.748;2022-07-29T03:08:04;3.15;;;2.75;;
18302;SDS011;9277;37.980;23.748;2022-07-29T03:10:32;5.85;;;3.40;;
18302;SDS011;9277;37.980;23.748;2022-07-29T03:12:59;4.10;;;3.10;;
18302;SDS011;9277;37.980;23.748;2022-07-29T03:15:26;4.65;;;3.00;;
18302;SDS011;9277;37.980;23.748;2022-07-29T03:17:53;5.57;;;3.00;;
18302;SDS011;9277;37.980;23.748;2022-07-29T03:20:20;5.68;;;3.30;;
18302;SDS011;9277;37.980;23.748;2022-07-29T03:22:48;4.10;;;3.25;;
18302;SDS011;9277;37.980;23.748;2022-07-29T03:25:17;3.50;;;2.97;;
18302;SDS011;9277;37.980;23.748;2022-07-29T03:27:44;3.30;;;2.90;;
18302;SDS011;9277;37.980;23.748;2022-07-29T03:30:12;6.38;;;3.20;;
18302;SDS011;9277;37.980;23.748;2022-07-29T03:32:39;2.95;;;2.75;;
18302;SDS011;9277;37.980;23.748;2022-07-29T03:35:07;5.43;;;3.40;;
18302;SDS011;9277;37.980;23.748;2022-07-29T03:37:34;5.07;;;2.90;;
18302;SDS011;9277;37.980;23.748;2022-07-29T03:40:02;12.82;;;3.22;;
18302;SDS011;9277;37.980;23.748;2022-07-29T03:42:31;3.15;;;2.53;;
18302;SDS011;9277;37.980;23.748;2022-07-29T03:45:00;6.22;;;2.90;;
18302;SDS011;9277;37.980;23.748;2022-07-29T03:47:28;7.45;;;3.13;;
18302;SDS011;9277;37.980;23.748;2022-07-29T03:49:58;4.47;;;2.40;;
18302;SDS011;9277;37.980;23.748;2022-07-29T03:52:26;4.03;;;2.67;;
18302;SDS011;9277;37.980;23.748;2022-07-29T03:54:53;5.75;;;2.08;;
18302;SDS011;9277;37.980;23.748;2022-07-29T03:57:22;3.08;;;2.10;;
18302;SDS011;9277;37.980;23.748;2022-07-29T03:59:51;4.47;;;2.30;;
18302;SDS011;9277;37.980;23.748;2022-07-29T04:02:19;5.38;;;2.42;;
18302;SDS011;9277;37.980;23.748;2022-07-29T04:04:46;4.90;;;2.50;;
18302;SDS011;9277;37.980;23.748;2022-07-29T04:07:13;11.18;;;2.90;;
18302;SDS011;9277;37.980;23.748;2022-07-29T04:09:40;4.40;;;2.80;;
18302;SDS011;9277;37.980;23.748;2022-07-29T04:12:07;4.65;;;2.60;;
18302;SDS011;9277;37.980;23.748;2022-07-29T04:14:35;5.38;;;2.30;;
18302;SDS011;9277;37.980;23.748;2022-07-29T04:17:03;2.83;;;2.50;;
18302;SDS011;9277;37.980;23.748;2022-07-29T04:19:30;2.88;;;2.28;;
18302;SDS011;9277;37.980;23.748;2022-07-29T04:21:57;5.47;;;2.63;;
18302;SDS011;9277;37.980;23.748;2022-07-29T04:24:24;3.45;;;2.30;;
18302;SDS011;9277;37.980;23.748;2022-07-29T04:26:51;9.05;;;2.72;;
18302;SDS011;9277;37.980;23.748;2022-07-29T04:29:18;6.95;;;2.22;;
18302;SDS011;9277;37.980;23.748;2022-07-29T04:31:45;3.20;;;2.22;;
18302;SDS011;9277;37.980;23.748;2022-07-29T04:34:13;3.83;;;2.30;;
18302;SDS011;9277;37.980;23.748;2022-07-29T04:36:40;3.95;;;2.10;;
18302;SDS011;9277;37.980;23.748;2022-07-29T04:39:07;6.38;;;2.70;;
18302;SDS011;9277;37.980;23.748;2022-07-29T04:41:34;6.60;;;2.60;;
18302;SDS011;9277;37.980;23.748;2022-07-29T04:44:02;2.50;;;1.90;;
18302;SDS011;9277;37.980;23.748;2022-07-29T04:46:30;1.88;;;1.77;;
18302;SDS011;9277;37.980;23.748;2022-07-29T04:48:57;3.58;;;2.00;;
18302;SDS011;9277;37.980;23.748;2022-07-29T04:51:25;6.93;;;2.60;;
18302;SDS011;9277;37.980;23.748;2022-07-29T04:53:52;3.35;;;2.10;;
18302;SDS011;9277;37.980;23.748;2022-07-29T04:56:19;2.85;;;2.30;;
18302;SDS011;9277;37.980;23.748;2022-07-29T04:58:46;3.10;;;2.15;;
18302;SDS011;9277;37.980;23.748;2022-07-29T05:01:12;4.68;;;2.47;;
18302;SDS011;9277;37.980;23.748;2022-07-29T05:03:40;3.88;;;2.50;;
18302;SDS011;9277;37.980;23.748;2022-07-29T05:06:06;3.00;;;2.10;;
18302;SDS011;9277;37.980;23.748;2022-07-29T05:08:35;6.38;;;2.40;;
18302;SDS011;9277;37.980;23.748;2022-07-29T05:11:01;3.70;;;2.30;;
18302;SDS011;9277;37.980;23.748;2022-07-29T05:13:28;3.35;;;2.10;;
18302;SDS011;9277;37.980;23.748;2022-07-29T05:15:55;3.80;;;2.38;;
18302;SDS011;9277;37.980;23.748;2022-07-29T05:18:23;9.05;;;2.55;;
18302;SDS011;9277;37.980;23.748;2022-07-29T05:20:50;2.97;;;2.15;;
18302;SDS011;9277;37.980;23.748;2022-07-29T05:23:17;2.20;;;1.98;;
18302;SDS011;9277;37.980;23.748;2022-07-29T05:25:45;3.25;;;1.90;;
18302;SDS011;9277;37.980;23.748;2022-07-29T05:28:12;2.08;;;1.85;;
18302;SDS011;9277;37.980;23.748;2022-07-29T05:30:39;4.47;;;1.98;;
18302;SDS011;9277;37.980;23.748;2022-07-29T05:33:06;4.13;;;2.10;;
18302;SDS011;9277;37.980;23.748;2022-07-29T05:35:32;3.90;;;2.13;;
18302;SDS011;9277;37.980;23.748;2022-07-29T05:38:00;6.65;;;2.20;;
18302;SDS011;9277;37.980;23.748;2022-07-29T05:40:26;3.05;;;1.65;;
18302;SDS011;9277;37.980;23.748;2022-07-29T05:42:55;2.65;;;2.20;;
18302;SDS011;9277;37.980;23.748;2022-07-29T05:45:22;3.03;;;2.00;;
18302;SDS011;9277;37.980;23.748;2022-07-29T05:47:49;2.35;;;2.13;;
18302;SDS011;9277;37.980;23.748;2022-07-29T05:50:16;1.85;;;1.48;;
18302;SDS011;9277;37.980;23.748;2022-07-29T05:52:43;1.80;;;1.70;;
18302;SDS011;9277;37.980;23.748;2022-07-29T05:55:10;2.63;;;1.80;;
18302;SDS011;9277;37.980;23.748;2022-07-29T05:57:37;4.25;;;1.42;;
18302;SDS011;9277;37.980;23.748;2022-07-29T06:00:06;1.70;;;1.52;;
18302;SDS011;9277;37.980;23.748;2022-07-29T06:02:33;1.95;;;1.73;;
18302;SDS011;9277;37.980;23.748;2022-07-29T06:04:59;5.03;;;2.13;;
18302;SDS011;9277;37.980;23.748;2022-07-29T06:07:26;4.18;;;1.80;;
18302;SDS011;9277;37.980;23.748;2022-07-29T06:09:53;4.88;;;1.73;;
18302;SDS011;9277;37.980;23.748;2022-07-29T06:12:20;2.25;;;1.65;;
18302;SDS011;9277;37.980;23.748;2022-07-29T06:14:46;5.32;;;2.45;;
18302;SDS011;9277;37.980;23.748;2022-07-29T06:17:15;1.88;;;1.70;;
18302;SDS011;9277;37.980;23.748;2022-07-29T06:19:42;3.03;;;1.65;;
18302;SDS011;9277;37.980;23.748;2022-07-29T06:22:09;2.97;;;2.05;;
18302;SDS011;9277;37.980;23.748;2022-07-29T06:24:36;2.20;;;2.00;;
18302;SDS011;9277;37.980;23.748;2022-07-29T06:27:05;2.72;;;1.92;;
18302;SDS011;9277;37.980;23.748;2022-07-29T06:29:31;3.28;;;1.60;;
18302;SDS011;9277;37.980;23.748;2022-07-29T06:31:58;2.53;;;1.70;;
18302;SDS011;9277;37.980;23.748;2022-07-29T06:34:26;2.47;;;2.00;;
18302;SDS011;9277;37.980;23.748;2022-07-29T06:36:53;3.13;;;2.00;;
18302;SDS011;9277;37.980;23.748;2022-07-29T06:39:20;3.58;;;2.00;;
18302;SDS011;9277;37.980;23.748;2022-07-29T06:41:47;7.88;;;2.55;;
18302;SDS011;9277;37.980;23.748;2022-07-29T06:44:15;2.50;;;1.80;;
18302;SDS011;9277;37.980;23.748;2022-07-29T06:46:42;4.38;;;1.95;;
18302;SDS011;9277;37.980;23.748;2022-07-29T06:49:09;5.68;;;2.30;;
18302;SDS011;9277;37.980;23.748;2022-07-29T06:51:39;1.92;;;1.80;;
18302;SDS011;9277;37.980;23.748;2022-07-29T06:54:05;1.80;;;1.70;;
18302;SDS011;9277;37.980;23.748;2022-07-29T06:56:33;2.90;;;1.73;;
18302;SDS011;9277;37.980;23.748;2022-07-29T06:59:00;2.22;;;2.03;;
18302;SDS011;9277;37.980;23.748;2022-07-29T07:01:27;1.90;;;1.80;;
18302;SDS011;9277;37.980;23.748;2022-07-29T07:03:54;3.22;;;1.70;;
18302;SDS011;9277;37.980;23.748;2022-07-29T07:06:21;1.92;;;1.77;;
18302;SDS011;9277;37.980;23.748;2022-07-29T07:08:49;3.97;;;2.10;;
18302;SDS011;9277;37.980;23.748;2022-07-29T07:11:16;7.78;;;1.90;;
18302;SDS011;9277;37.980;23.748;2022-07-29T07:13:43;7.18;;;1.92;;
18302;SDS011;9277;37.980;23.748;2022-07-29T07:16:10;2.22;;;1.65;;
18302;SDS011;9277;37.980;23.748;2022-07-29T07:18:37;3.95;;;1.65;;
18302;SDS011;9277;37.980;23.748;2022-07-29T07:21:04;4.07;;;1.80;;
18302;SDS011;9277;37.980;23.748;2022-07-29T07:23:31;3.85;;;1.77;;
18302;SDS011;9277;37.980;23.748;2022-07-29T07:25:59;5.72;;;1.80;;
18302;SDS011;9277;37.980;23.748;2022-07-29T07:28:26;4.78;;;1.63;;
18302;SDS011;9277;37.980;23.748;2022-07-29T07:30:53;1.80;;;1.60;;
18302;SDS011;9277;37.980;23.748;2022-07-29T07:33:20;2.38;;;1.70;;
18302;SDS011;9277;37.980;23.748;2022-07-29T07:35:46;4.05;;;1.65;;
18302;SDS011;9277;37.980;23.748;2022-07-29T07:38:13;2.95;;;1.70;;
18302;SDS011;9277;37.980;23.748;2022-07-29T07:40:40;1.45;;;1.38;;
18302;SDS011;9277;37.980;23.748;2022-07-29T07:43:09;1.55;;;1.50;;
18302;SDS011;9277;37.980;23.748;2022-07-29T07:45:36;1.67;;;1.58;;
18302;SDS011;9277;37.980;23.748;2022-07-29T07:48:04;3.85;;;1.50;;
18302;SDS011;9277;37.980;23.748;2022-07-29T07:50:31;3.00;;;1.70;;
18302;SDS011;9277;37.980;23.748;2022-07-29T07:52:58;1.58;;;1.48;;
18302;SDS011;9277;37.980;23.748;2022-07-29T07:55:27;1.50;;;1.35;;
18302;SDS011;9277;37.980;23.748;2022-07-29T07:57:54;1.73;;;1.63;;
18302;SDS011;9277;37.980;23.748;2022-07-29T08:00:22;3.97;;;1.55;;
18302;SDS011;9277;37.980;23.748;2022-07-29T08:02:49;3.55;;;1.70;;
18302;SDS011;9277;37.980;23.748;2022-07-29T08:05:17;2.00;;;1.80;;
18302;SDS011;9277;37.980;23.748;2022-07-29T08:07:44;3.65;;;1.80;;
18302;SDS011;9277;37.980;23.748;2022-07-29T08:10:11;9.23;;;1.80;;
18302;SDS011;9277;37.980;23.748;2022-07-29T08:12:38;4.35;;;1.98;;
18302;SDS011;9277;37.980;23.748;2022-07-29T08:15:07;2.10;;;1.92;;
18302;SDS011;9277;37.980;23.748;2022-07-29T08:17:35;4.10;;;1.73;;
18302;SDS011;9277;37.980;23.748;2022-07-29T08:20:03;1.98;;;1.88;;
18302;SDS011;9277;37.980;23.748;2022-07-29T08:22:30;1.70;;;1.60;;
18302;SDS011;9277;37.980;23.748;2022-07-29T08:24:56;3.00;;;1.60;;
18302;SDS011;9277;37.980;23.748;2022-07-29T08:27:23;4.72;;;1.63;;
18302;SDS011;9277;37.980;23.748;2022-07-29T08:29:51;3.58;;;1.67;;
18302;SDS011;9277;37.980;23.748;2022-07-29T08:32:18;3.40;;;1.63;;
18302;SDS011;9277;37.980;23.748;2022-07-29T08:34:47;2.72;;;1.88;;
18302;SDS011;9277;37.980;23.748;2022-07-29T08:37:13;4.55;;;2.10;;
18302;SDS011;9277;37.980;23.748;2022-07-29T08:39:40;7.85;;;1.90;;
18302;SDS011;9277;37.980;23.748;2022-07-29T08:42:07;4.00;;;1.88;;
18302;SDS011;9277;37.980;23.748;2022-07-29T08:44:34;1.67;;;1.50;;
18302;SDS011;9277;37.980;23.748;2022-07-29T08:47:02;2.63;;;1.98;;
18302;SDS011;9277;37.980;23.748;2022-07-29T08:49:30;4.82;;;1.92;;
18302;SDS011;9277;37.980;23.748;2022-07-29T08:51:58;2.60;;;2.28;;
18302;SDS011;9277;37.980;23.748;2022-07-29T08:54:26;2.03;;;1.80;;
18302;SDS011;9277;37.980;23.748;2022-07-29T08:56:54;3.88;;;2.08;;
18302;SDS011;9277;37.980;23.748;2022-07-29T08:59:22;2.47;;;1.70;;
18302;SDS011;9277;37.980;23.748;2022-07-29T09:01:49;4.60;;;1.85;;
18302;SDS011;9277;37.980;23.748;2022-07-29T09:04:18;2.75;;;2.05;;
18302;SDS011;9277;37.980;23.748;2022-07-29T09:06:46;3.72;;;2.28;;
18302;SDS011;9277;37.980;23.748;2022-07-29T09:09:15;4.22;;;1.80;;
18302;SDS011;9277;37.980;23.748;2022-07-29T09:11:42;2.03;;;1.75;;
18302;SDS011;9277;37.980;23.748;2022-07-29T09:14:10;3.60;;;1.92;;
18302;SDS011;9277;37.980;23.748;2022-07-29T09:16:44;1.75;;;1.65;;
18302;SDS011;9277;37.980;23.748;2022-07-29T09:19:19;3.25;;;2.03;;
18302;SDS011;9277;37.980;23.748;2022-07-29T09:21:46;3.25;;;1.63;;
18302;SDS011;9277;37.980;23.748;2022-07-29T09:24:27;2.13;;;1.90;;
18302;SDS011;9277;37.980;23.748;2022-07-29T09:26:54;2.05;;;1.80;;
18302;SDS011;9277;37.980;23.748;2022-07-29T09:29:22;2.78;;;1.98;;
18302;SDS011;9277;37.980;23.748;2022-07-29T09:31:49;2.97;;;1.88;;
18302;SDS011;9277;37.980;23.748;2022-07-29T09:34:16;2.25;;;1.85;;
18302;SDS011;9277;37.980;23.748;2022-07-29T09:36:43;2.13;;;1.92;;
18302;SDS011;9277;37.980;23.748;2022-07-29T09:39:11;3.30;;;2.10;;
18302;SDS011;9277;37.980;23.748;2022-07-29T09:41:46;2.42;;;2.03;;
18302;SDS011;9277;37.980;23.748;2022-07-29T09:44:13;1.92;;;1.83;;
18302;SDS011;9277;37.980;23.748;2022-07-29T09:46:40;2.53;;;1.63;;
18302;SDS011;9277;37.980;23.748;2022-07-29T09:49:08;3.45;;;2.00;;
18302;SDS011;9277;37.980;23.748;2022-07-29T09:51:35;2.42;;;2.00;;
18302;SDS011;9277;37.980;23.748;2022-07-29T09:54:02;2.50;;;2.00;;
18302;SDS011;9277;37.980;23.748;2022-07-29T09:56:49;2.10;;;2.00;;
18302;SDS011;9277;37.980;23.748;2022-07-29T09:59:16;2.65;;;1.70;;
18302;SDS011;9277;37.980;23.748;2022-07-29T10:01:43;2.72;;;2.00;;
18302;SDS011;9277;37.980;23.748;2022-07-29T10:04:10;3.08;;;1.90;;
18302;SDS011;9277;37.980;23.748;2022-07-29T10:06:40;1.80;;;1.70;;
18302;SDS011;9277;37.980;23.748;2022-07-29T10:09:21;4.28;;;1.83;;
18302;SDS011;9277;37.980;23.748;2022-07-29T10:12:03;1.50;;;1.40;;
18302;SDS011;9277;37.980;23.748;2022-07-29T10:14:30;2.17;;;1.90;;
18302;SDS011;9277;37.980;23.748;2022-07-29T10:16:57;2.15;;;2.03;;
18302;SDS011;9277;37.980;23.748;2022-07-29T10:19:25;1.60;;;1.50;;
18302;SDS011;9277;37.980;23.748;2022-07-29T10:21:52;4.60;;;1.92;;
18302;SDS011;9277;37.980;23.748;2022-07-29T10:24:19;3.55;;;1.70;;
18302;SDS011;9277;37.980;23.748;2022-07-29T10:26:47;1.70;;;1.60;;
18302;SDS011;9277;37.980;23.748;2022-07-29T10:29:16;5.47;;;1.75;;
18302;SDS011;9277;37.980;23.748;2022-07-29T10:31:44;2.25;;;2.05;;
18302;SDS011;9277;37.980;23.748;2022-07-29T10:34:16;3.33;;;1.95;;
18302;SDS011;9277;37.980;23.748;2022-07-29T10:36:49;2.40;;;2.17;;
18302;SDS011;9277;37.980;23.748;2022-07-29T10:39:23;3.60;;;1.70;;
18302;SDS011;9277;37.980;23.748;2022-07-29T10:41:56;4.60;;;2.13;;
18302;SDS011;9277;37.980;23.748;2022-07-29T10:44:27;9.05;;;2.05;;
18302;SDS011;9277;37.980;23.748;2022-07-29T10:46:54;1.70;;;1.60;;
18302;SDS011;9277;37.980;23.748;2022-07-29T10:49:21;2.30;;;1.70;;
18302;SDS011;9277;37.980;23.748;2022-07-29T10:51:56;1.98;;;1.88;;
18302;SDS011;9277;37.980;23.748;2022-07-29T10:54:40;2.17;;;2.00;;
18302;SDS011;9277;37.980;23.748;2022-07-29T10:57:11;2.47;;;1.80;;
18302;SDS011;9277;37.980;23.748;2022-07-29T10:59:40;4.75;;;2.05;;
18302;SDS011;9277;37.980;23.748;2022-07-29T11:04:59;2.90;;;1.73;;
18302;SDS011;9277;37.980;23.748;2022-07-29T11:07:26;1.65;;;1.55;;
18302;SDS011;9277;37.980;23.748;2022-07-29T11:12:48;2.10;;;1.73;;
18302;SDS011;9277;37.980;23.748;2022-07-29T11:15:18;3.72;;;1.80;;
18302;SDS011;9277;37.980;23.748;2022-07-29T11:20:34;2.40;;;1.83;;
18302;SDS011;9277;37.980;23.748;2022-07-29T11:23:01;1.98;;;1.83;;
18302;SDS011;9277;37.980;23.748;2022-07-29T11:25:28;1.88;;;1.77;;
18302;SDS011;9277;37.980;23.748;2022-07-29T11:28:07;1.92;;;1.80;;
18302;SDS011;9277;37.980;23.748;2022-07-29T11:30:49;4.03;;;2.22;;
18302;SDS011;9277;37.980;23.748;2022-07-29T11:36:07;2.33;;;2.13;;
18302;SDS011;9277;37.980;23.748;2022-07-29T11:38:35;2.08;;;1.80;;
18302;SDS011;9277;37.980;23.748;2022-07-29T11:43:55;2.15;;;2.00;;
18302;SDS011;9277;37.980;23.748;2022-07-29T11:49:21;1.80;;;1.70;;
18302;SDS011;9277;37.980;23.748;2022-07-29T11:51:51;2.13;;;2.03;;
18302;SDS011;9277;37.980;23.748;2022-07-29T11:54:21;2.03;;;1.90;;
18302;SDS011;9277;37.980;23.748;2022-07-29T11:56:50;2.35;;;1.88;;
18302;SDS011;9277;37.980;23.748;2022-07-29T11:59:17;2.03;;;1.92;;
18302;SDS011;9277;37.980;23.748;2022-07-29T12:01:52;4.40;;;1.90;;
18302;SDS011;9277;37.980;23.748;2022-07-29T12:04:20;3.13;;;2.08;;
18302;SDS011;9277;37.980;23.748;2022-07-29T12:06:49;3.60;;;1.90;;
18302;SDS011;9277;37.980;23.748;2022-07-29T12:09:16;2.30;;;2.03;;
18302;SDS011;9277;37.980;23.748;2022-07-29T12:11:44;4.70;;;2.10;;
18302;SDS011;9277;37.980;23.748;2022-07-29T12:14:24;2.10;;;1.90;;
18302;SDS011;9277;37.980;23.748;2022-07-29T12:16:50;2.70;;;1.65;;
18302;SDS011;9277;37.980;23.748;2022-07-29T12:19:18;1.92;;;1.83;;
18302;SDS011;9277;37.980;23.748;2022-07-29T12:21:47;4.78;;;2.10;;
18302;SDS011;9277;37.980;23.748;2022-07-29T12:24:13;1.77;;;1.67;;
18302;SDS011;9277;37.980;23.748;2022-07-29T12:26:48;8.02;;;1.92;;
18302;SDS011;9277;37.980;23.748;2022-07-29T12:29:15;2.63;;;1.90;;
18302;SDS011;9277;37.980;23.748;2022-07-29T12:31:42;2.17;;;1.80;;
18302;SDS011;9277;37.980;23.748;2022-07-29T12:34:09;2.00;;;1.88;;
18302;SDS011;9277;37.980;23.748;2022-07-29T12:36:36;1.90;;;1.65;;
18302;SDS011;9277;37.980;23.748;2022-07-29T12:39:05;1.92;;;1.80;;
18302;SDS011;9277;37.980;23.748;2022-07-29T12:41:32;1.80;;;1.70;;
18302;SDS011;9277;37.980;23.748;2022-07-29T12:43:58;1.70;;;1.60;;
18302;SDS011;9277;37.980;23.748;2022-07-29T12:46:25;2.42;;;2.20;;
18302;SDS011;9277;37.980;23.748;2022-07-29T12:48:53;2.17;;;1.92;;
18302;SDS011;9277;37.980;23.748;2022-07-29T12:51:27;2.25;;;1.98;;
18302;SDS011;9277;37.980;23.748;2022-07-29T12:54:01;2.00;;;1.90;;
18302;SDS011;9277;37.980;23.748;2022-07-29T12:56:30;5.20;;;2.00;;
18302;SDS011;9277;37.980;23.748;2022-07-29T12:58:57;1.83;;;1.73;;
18302;SDS011;9277;37.980;23.748;2022-07-29T13:01:24;2.25;;;1.90;;
18302;SDS011;9277;37.980;23.748;2022-07-29T13:03:53;3.45;;;1.92;;
18302;SDS011;9277;37.980;23.748;2022-07-29T13:06:28;2.38;;;1.85;;
18302;SDS011;9277;37.980;23.748;2022-07-29T13:08:58;2.08;;;1.98;;
18302;SDS011;9277;37.980;23.748;2022-07-29T13:11:36;3.92;;;1.85;;
18302;SDS011;9277;37.980;23.748;2022-07-29T13:14:03;4.82;;;2.38;;
18302;SDS011;9277;37.980;23.748;2022-07-29T13:16:30;2.53;;;2.05;;
18302;SDS011;9277;37.980;23.748;2022-07-29T13:19:04;1.88;;;1.67;;
18302;SDS011;9277;37.980;23.748;2022-07-29T13:21:31;2.38;;;1.92;;
18302;SDS011;9277;37.980;23.748;2022-07-29T13:23:57;2.53;;;2.33;;
18302;SDS011;9277;37.980;23.748;2022-07-29T13:26:24;2.17;;;1.83;;
18302;SDS011;9277;37.980;23.748;2022-07-29T13:28:52;2.00;;;1.88;;
18302;SDS011;9277;37.980;23.748;2022-07-29T13:31:19;1.80;;;1.70;;
18302;SDS011;9277;37.980;23.748;2022-07-29T13:33:47;2.97;;;2.10;;
18302;SDS011;9277;37.980;23.748;2022-07-29T13:36:14;1.98;;;1.88;;
18302;SDS011;9277;37.980;23.748;2022-07-29T13:38:41;1.77;;;1.67;;
18302;SDS011;9277;37.980;23.748;2022-07-29T13:41:09;2.85;;;2.13;;
18302;SDS011;9277;37.980;23.748;2022-07-29T13:43:36;2.33;;;2.13;;
18302;SDS011;9277;37.980;23.748;2022-07-29T13:46:04;4.03;;;2.13;;
18302;SDS011;9277;37.980;23.748;2022-07-29T13:48:31;2.35;;;2.10;;
18302;SDS011;9277;37.980;23.748;2022-07-29T13:50:58;2.33;;;2.13;;
18302;SDS011;9277;37.980;23.748;2022-07-29T13:53:25;2.08;;;1.98;;
18302;SDS011;9277;37.980;23.748;2022-07-29T13:55:53;5.60;;;2.30;;
18302;SDS011;9277;37.980;23.748;2022-07-29T13:58:20;2.78;;;1.98;;
18302;SDS011;9277;37.980;23.748;2022-07-29T14:00:46;1.70;;;1.60;;
18302;SDS011;9277;37.980;23.748;2022-07-29T14:03:15;4.57;;;1.75;;
18302;SDS011;9277;37.980;23.748;2022-07-29T14:05:42;3.15;;;2.03;;
18302;SDS011;9277;37.980;23.748;2022-07-29T14:08:09;2.03;;;1.92;;
18302;SDS011;9277;37.980;23.748;2022-07-29T14:10:35;2.58;;;1.90;;
18302;SDS011;9277;37.980;23.748;2022-07-29T14:13:02;2.20;;;2.10;;
18302;SDS011;9277;37.980;23.748;2022-07-29T14:15:29;1.70;;;1.60;;
18302;SDS011;9277;37.980;23.748;2022-07-29T14:17:56;2.10;;;1.90;;
18302;SDS011;9277;37.980;23.748;2022-07-29T14:20:25;2.10;;;1.90;;
18302;SDS011;9277;37.980;23.748;2022-07-29T14:22:53;2.28;;;2.10;;
18302;SDS011;9277;37.980;23.748;2022-07-29T14:25:20;1.95;;;1.85;;
18302;SDS011;9277;37.980;23.748;2022-07-29T14:27:47;2.05;;;1.95;;
18302;SDS011;9277;37.980;23.748;2022-07-29T14:30:13;1.95;;;1.85;;
18302;SDS011;9277;37.980;23.748;2022-07-29T14:32:40;1.70;;;1.60;;
18302;SDS011;9277;37.980;23.748;2022-07-29T14:35:07;2.00;;;1.80;;
18302;SDS011;9277;37.980;23.748;2022-07-29T14:37:36;2.00;;;1.90;;
18302;SDS011;9277;37.980;23.748;2022-07-29T14:40:03;2.20;;;2.00;;
18302;SDS011;9277;37.980;23.748;2022-07-29T14:42:30;2.13;;;2.03;;
18302;SDS011;9277;37.980;23.748;2022-07-29T14:44:57;2.13;;;2.03;;
18302;SDS011;9277;37.980;23.748;2022-07-29T14:47:24;2.35;;;2.17;;
18302;SDS011;9277;37.980;23.748;2022-07-29T14:49:51;2.22;;;2.10;;
18302;SDS011;9277;37.980;23.748;2022-07-29T14:52:17;2.63;;;2.00;;
18302;SDS011;9277;37.980;23.748;2022-07-29T14:54:46;2.03;;;1.92;;
18302;SDS011;9277;37.980;23.748;2022-07-29T14:57:12;1.90;;;1.80;;
18302;SDS011;9277;37.980;23.748;2022-07-29T14:59:39;2.08;;;1.88;;
18302;SDS011;9277;37.980;23.748;2022-07-29T15:02:06;8.93;;;2.25;;
18302;SDS011;9277;37.980;23.748;2022-07-29T15:04:33;2.95;;;2.03;;
18302;SDS011;9277;37.980;23.748;2022-07-29T15:06:59;2.28;;;2.03;;
18302;SDS011;9277;37.980;23.748;2022-07-29T15:09:26;2.30;;;2.10;;
18302;SDS011;9277;37.980;23.748;2022-07-29T15:11:54;1.92;;;1.83;;
18302;SDS011;9277;37.980;23.748;2022-07-29T15:14:21;1.98;;;1.60;;